sensor_id;sensor_type;location;lat;lon;timestamp;P1;durP1;ratioP1;P2;durP2;ratioP2
31660;SDS011;18267;52.234;7.444;2024-03-02T00:02:01;5.15;;;2.85;;
31660;SDS011;18267;52.234;7.444;2024-03-02T00:04:26;5.85;;;3.25;;
31660;SDS011;18267;52.234;7.444;2024-03-02T00:06:52;5.25;;;3.15;;
31660;SDS011;18267;52.234;7.444;2024-03-02T00:09:19;4.93;;;3.78;;
31660;SDS011;18267;52.234;7.444;2024-03-02T00:11:45;4.43;;;3.00;;
31660;SDS011;18267;52.234;7.444;2024-03-02T00:14:11;4.07;;;2.95;;
31660;SDS011;18267;52.234;7.444;2024-03-02T00:16:37;4.43;;;2.80;;
31660;SDS011;18267;52.234;7.444;2024-03-02T00:19:03;4.70;;;3.10;;
31660;SDS011;18267;52.234;7.444;2024-03-02T00:21:30;5.15;;;3.13;;
31660;SDS011;18267;52.234;7.444;2024-03-02T00:23:56;5.35;;;2.78;;
31660;SDS011;18267;52.234;7.444;2024-03-02T00:26:22;5.75;;;2.83;;
31660;SDS011;18267;52.234;7.444;2024-03-02T00:28:47;4.32;;;3.05;;
31660;SDS011;18267;52.234;7.444;2024-03-02T00:31:15;5.20;;;2.70;;
31660;SDS011;18267;52.234;7.444;2024-03-02T00:33:45;3.67;;;2.38;;
31660;SDS011;18267;52.234;7.444;2024-03-02T00:36:12;4.05;;;2.67;;
31660;SDS011;18267;52.234;7.444;2024-03-02T00:41:21;7.28;;;2.75;;
31660;SDS011;18267;52.234;7.444;2024-03-02T00:43:56;5.18;;;2.80;;
31660;SDS011;18267;52.234;7.444;2024-03-02T00:46:34;4.07;;;2.53;;
31660;SDS011;18267;52.234;7.444;2024-03-02T00:49:04;5.28;;;2.58;;
31660;SDS011;18267;52.234;7.444;2024-03-02T00:51:35;3.13;;;2.50;;
31660;SDS011;18267;52.234;7.444;2024-03-02T00:54:04;4.35;;;2.38;;
31660;SDS011;18267;52.234;7.444;2024-03-02T00:56:31;3.72;;;2.50;;
31660;SDS011;18267;52.234;7.444;2024-03-02T00:58:57;4.47;;;2.60;;
31660;SDS011;18267;52.234;7.444;2024-03-02T01:01:23;5.03;;;2.13;;
31660;SDS011;18267;52.234;7.444;2024-03-02T01:03:48;2.67;;;2.47;;
31660;SDS011;18267;52.234;7.444;2024-03-02T01:06:14;5.18;;;2.33;;
31660;SDS011;18267;52.234;7.444;2024-03-02T01:08:40;3.97;;;2.30;;
31660;SDS011;18267;52.234;7.444;2024-03-02T01:11:06;3.50;;;2.40;;
31660;SDS011;18267;52.234;7.444;2024-03-02T01:13:32;4.45;;;2.60;;
31660;SDS011;18267;52.234;7.444;2024-03-02T01:15:58;4.88;;;2.80;;
31660;SDS011;18267;52.234;7.444;2024-03-02T01:18:23;3.55;;;2.00;;
31660;SDS011;18267;52.234;7.444;2024-03-02T01:20:49;4.43;;;2.28;;
31660;SDS011;18267;52.234;7.444;2024-03-02T01:23:20;4.13;;;2.47;;
31660;SDS011;18267;52.234;7.444;2024-03-02T01:25:46;4.20;;;2.65;;
31660;SDS011;18267;52.234;7.444;2024-03-02T01:28:12;3.42;;;2.47;;
31660;SDS011;18267;52.234;7.444;2024-03-02T01:30:38;3.03;;;2.05;;
31660;SDS011;18267;52.234;7.444;2024-03-02T01:33:03;4.72;;;2.25;;
31660;SDS011;18267;52.234;7.444;2024-03-02T01:35:30;4.07;;;2.03;;
31660;SDS011;18267;52.234;7.444;2024-03-02T01:37:56;2.97;;;2.33;;
31660;SDS011;18267;52.234;7.444;2024-03-02T01:40:21;3.05;;;2.13;;
31660;SDS011;18267;52.234;7.444;2024-03-02T01:42:51;4.15;;;2.30;;
31660;SDS011;18267;52.234;7.444;2024-03-02T01:45:17;3.83;;;2.40;;
31660;SDS011;18267;52.234;7.444;2024-03-02T01:47:43;3.70;;;2.33;;
31660;SDS011;18267;52.234;7.444;2024-03-02T01:50:09;6.32;;;2.03;;
31660;SDS011;18267;52.234;7.444;2024-03-02T01:52:36;5.75;;;2.33;;
31660;SDS011;18267;52.234;7.444;2024-03-02T01:55:02;5.25;;;2.45;;
31660;SDS011;18267;52.234;7.444;2024-03-02T01:57:28;3.60;;;2.55;;
31660;SDS011;18267;52.234;7.444;2024-03-02T01:59:54;3.65;;;2.42;;
31660;SDS011;18267;52.234;7.444;2024-03-02T02:02:20;5.65;;;2.30;;
31660;SDS011;18267;52.234;7.444;2024-03-02T02:04:46;3.75;;;2.10;;
31660;SDS011;18267;52.234;7.444;2024-03-02T02:07:12;5.35;;;2.42;;
31660;SDS011;18267;52.234;7.444;2024-03-02T02:09:39;2.30;;;1.70;;
31660;SDS011;18267;52.234;7.444;2024-03-02T02:12:08;3.25;;;2.40;;
31660;SDS011;18267;52.234;7.444;2024-03-02T02:14:35;3.75;;;2.50;;
31660;SDS011;18267;52.234;7.444;2024-03-02T02:17:00;3.15;;;2.17;;
31660;SDS011;18267;52.234;7.444;2024-03-02T02:19:26;3.08;;;2.45;;
31660;SDS011;18267;52.234;7.444;2024-03-02T02:21:52;3.17;;;2.50;;
31660;SDS011;18267;52.234;7.444;2024-03-02T02:24:17;4.60;;;2.10;;
31660;SDS011;18267;52.234;7.444;2024-03-02T02:26:43;5.20;;;2.80;;
31660;SDS011;18267;52.234;7.444;2024-03-02T02:29:09;3.67;;;2.50;;
31660;SDS011;18267;52.234;7.444;2024-03-02T02:31:40;3.15;;;2.38;;
31660;SDS011;18267;52.234;7.444;2024-03-02T02:34:06;5.63;;;2.92;;
31660;SDS011;18267;52.234;7.444;2024-03-02T02:36:33;5.80;;;2.85;;
31660;SDS011;18267;52.234;7.444;2024-03-02T02:39:02;2.90;;;2.30;;
31660;SDS011;18267;52.234;7.444;2024-03-02T02:41:29;4.57;;;2.60;;
31660;SDS011;18267;52.234;7.444;2024-03-02T02:43:55;4.85;;;2.67;;
31660;SDS011;18267;52.234;7.444;2024-03-02T02:46:21;5.28;;;2.90;;
31660;SDS011;18267;52.234;7.444;2024-03-02T02:48:46;5.35;;;2.83;;
31660;SDS011;18267;52.234;7.444;2024-03-02T02:51:12;3.75;;;2.63;;
31660;SDS011;18267;52.234;7.444;2024-03-02T02:53:38;6.30;;;2.38;;
31660;SDS011;18267;52.234;7.444;2024-03-02T02:56:06;4.45;;;2.47;;
31660;SDS011;18267;52.234;7.444;2024-03-02T02:58:31;4.75;;;2.92;;
31660;SDS011;18267;52.234;7.444;2024-03-02T03:00:57;3.90;;;2.80;;
31660;SDS011;18267;52.234;7.444;2024-03-02T03:03:22;4.32;;;2.97;;
31660;SDS011;18267;52.234;7.444;2024-03-02T03:05:48;3.45;;;2.45;;
31660;SDS011;18267;52.234;7.444;2024-03-02T03:08:14;5.03;;;2.83;;
31660;SDS011;18267;52.234;7.444;2024-03-02T03:10:41;4.28;;;2.95;;
31660;SDS011;18267;52.234;7.444;2024-03-02T03:13:06;5.63;;;2.80;;
31660;SDS011;18267;52.234;7.444;2024-03-02T03:15:34;4.47;;;2.65;;
31660;SDS011;18267;52.234;7.444;2024-03-02T03:18:01;4.50;;;2.97;;
31660;SDS011;18267;52.234;7.444;2024-03-02T03:20:28;3.90;;;2.50;;
31660;SDS011;18267;52.234;7.444;2024-03-02T03:22:54;5.07;;;3.03;;
31660;SDS011;18267;52.234;7.444;2024-03-02T03:25:20;4.93;;;2.88;;
31660;SDS011;18267;52.234;7.444;2024-03-02T03:27:46;3.63;;;2.67;;
31660;SDS011;18267;52.234;7.444;2024-03-02T03:30:12;4.20;;;2.90;;
31660;SDS011;18267;52.234;7.444;2024-03-02T03:32:37;6.90;;;3.10;;
31660;SDS011;18267;52.234;7.444;2024-03-02T03:35:03;5.85;;;3.22;;
31660;SDS011;18267;52.234;7.444;2024-03-02T03:37:29;4.60;;;3.00;;
31660;SDS011;18267;52.234;7.444;2024-03-02T03:40:04;4.22;;;2.85;;
31660;SDS011;18267;52.234;7.444;2024-03-02T03:42:36;5.07;;;2.67;;
31660;SDS011;18267;52.234;7.444;2024-03-02T03:45:02;6.05;;;3.28;;
31660;SDS011;18267;52.234;7.444;2024-03-02T03:47:30;4.38;;;3.47;;
31660;SDS011;18267;52.234;7.444;2024-03-02T03:49:56;4.18;;;3.50;;
31660;SDS011;18267;52.234;7.444;2024-03-02T03:52:22;4.88;;;2.75;;
31660;SDS011;18267;52.234;7.444;2024-03-02T03:54:48;7.82;;;3.40;;
31660;SDS011;18267;52.234;7.444;2024-03-02T03:57:14;5.38;;;3.22;;
31660;SDS011;18267;52.234;7.444;2024-03-02T03:59:39;3.47;;;2.85;;
31660;SDS011;18267;52.234;7.444;2024-03-02T04:02:05;4.88;;;3.35;;
31660;SDS011;18267;52.234;7.444;2024-03-02T04:04:32;5.10;;;3.35;;
31660;SDS011;18267;52.234;7.444;2024-03-02T04:06:58;3.92;;;2.90;;
31660;SDS011;18267;52.234;7.444;2024-03-02T04:09:24;6.57;;;3.80;;
31660;SDS011;18267;52.234;7.444;2024-03-02T04:11:50;4.65;;;3.33;;
31660;SDS011;18267;52.234;7.444;2024-03-02T04:14:16;5.95;;;3.40;;
31660;SDS011;18267;52.234;7.444;2024-03-02T04:16:42;5.03;;;3.05;;
31660;SDS011;18267;52.234;7.444;2024-03-02T04:19:07;5.93;;;3.08;;
31660;SDS011;18267;52.234;7.444;2024-03-02T04:21:33;6.75;;;3.55;;
31660;SDS011;18267;52.234;7.444;2024-03-02T04:23:58;4.30;;;3.20;;
31660;SDS011;18267;52.234;7.444;2024-03-02T04:26:24;6.50;;;3.35;;
31660;SDS011;18267;52.234;7.444;2024-03-02T04:28:51;5.75;;;3.35;;
31660;SDS011;18267;52.234;7.444;2024-03-02T04:31:17;5.03;;;3.28;;
31660;SDS011;18267;52.234;7.444;2024-03-02T04:33:42;4.75;;;3.40;;
31660;SDS011;18267;52.234;7.444;2024-03-02T04:36:08;5.95;;;3.03;;
31660;SDS011;18267;52.234;7.444;2024-03-02T04:38:37;4.47;;;3.03;;
31660;SDS011;18267;52.234;7.444;2024-03-02T04:41:04;4.47;;;3.17;;
31660;SDS011;18267;52.234;7.444;2024-03-02T04:43:33;5.22;;;2.95;;
31660;SDS011;18267;52.234;7.444;2024-03-02T04:45:59;4.55;;;2.78;;
31660;SDS011;18267;52.234;7.444;2024-03-02T04:48:25;5.32;;;3.65;;
31660;SDS011;18267;52.234;7.444;2024-03-02T04:50:51;4.13;;;3.15;;
31660;SDS011;18267;52.234;7.444;2024-03-02T04:53:17;5.05;;;3.20;;
31660;SDS011;18267;52.234;7.444;2024-03-02T04:55:42;7.10;;;3.17;;
31660;SDS011;18267;52.234;7.444;2024-03-02T04:58:08;4.88;;;3.50;;
31660;SDS011;18267;52.234;7.444;2024-03-02T05:00:34;6.13;;;3.17;;
31660;SDS011;18267;52.234;7.444;2024-03-02T05:02:59;5.32;;;3.50;;
31660;SDS011;18267;52.234;7.444;2024-03-02T05:05:25;5.50;;;3.30;;
31660;SDS011;18267;52.234;7.444;2024-03-02T05:07:51;6.35;;;3.47;;
31660;SDS011;18267;52.234;7.444;2024-03-02T05:10:17;7.80;;;3.13;;
31660;SDS011;18267;52.234;7.444;2024-03-02T05:12:43;4.05;;;2.80;;
31660;SDS011;18267;52.234;7.444;2024-03-02T05:15:08;5.30;;;3.05;;
31660;SDS011;18267;52.234;7.444;2024-03-02T05:17:35;7.15;;;3.30;;
31660;SDS011;18267;52.234;7.444;2024-03-02T05:20:01;5.95;;;3.10;;
31660;SDS011;18267;52.234;7.444;2024-03-02T05:22:28;11.48;;;3.72;;
31660;SDS011;18267;52.234;7.444;2024-03-02T05:24:53;6.30;;;3.20;;
31660;SDS011;18267;52.234;7.444;2024-03-02T05:27:19;6.22;;;3.42;;
31660;SDS011;18267;52.234;7.444;2024-03-02T05:29:44;6.35;;;2.92;;
31660;SDS011;18267;52.234;7.444;2024-03-02T05:32:10;4.78;;;3.08;;
31660;SDS011;18267;52.234;7.444;2024-03-02T05:34:35;3.65;;;2.72;;
31660;SDS011;18267;52.234;7.444;2024-03-02T05:37:01;5.18;;;2.97;;
31660;SDS011;18267;52.234;7.444;2024-03-02T05:39:27;5.55;;;3.25;;
31660;SDS011;18267;52.234;7.444;2024-03-02T05:41:52;4.75;;;3.15;;
31660;SDS011;18267;52.234;7.444;2024-03-02T05:44:18;3.85;;;2.90;;
31660;SDS011;18267;52.234;7.444;2024-03-02T05:46:44;5.60;;;3.15;;
31660;SDS011;18267;52.234;7.444;2024-03-02T05:49:10;3.83;;;2.65;;
31660;SDS011;18267;52.234;7.444;2024-03-02T05:51:36;6.60;;;3.00;;
31660;SDS011;18267;52.234;7.444;2024-03-02T05:54:01;3.97;;;2.78;;
31660;SDS011;18267;52.234;7.444;2024-03-02T05:56:27;4.43;;;2.75;;
31660;SDS011;18267;52.234;7.444;2024-03-02T05:58:53;4.68;;;3.38;;
31660;SDS011;18267;52.234;7.444;2024-03-02T06:01:44;4.25;;;3.00;;
31660;SDS011;18267;52.234;7.444;2024-03-02T06:04:12;4.82;;;3.15;;
31660;SDS011;18267;52.234;7.444;2024-03-02T06:06:38;5.30;;;3.25;;
31660;SDS011;18267;52.234;7.444;2024-03-02T06:09:04;6.00;;;3.10;;
31660;SDS011;18267;52.234;7.444;2024-03-02T06:11:33;7.55;;;3.40;;
31660;SDS011;18267;52.234;7.444;2024-03-02T06:14:07;3.78;;;3.00;;
31660;SDS011;18267;52.234;7.444;2024-03-02T06:16:33;5.32;;;3.33;;
31660;SDS011;18267;52.234;7.444;2024-03-02T06:19:00;5.70;;;3.13;;
31660;SDS011;18267;52.234;7.444;2024-03-02T06:21:26;5.95;;;3.17;;
31660;SDS011;18267;52.234;7.444;2024-03-02T06:23:52;6.32;;;3.17;;
31660;SDS011;18267;52.234;7.444;2024-03-02T06:26:19;4.97;;;3.05;;
31660;SDS011;18267;52.234;7.444;2024-03-02T06:28:45;5.63;;;3.25;;
31660;SDS011;18267;52.234;7.444;2024-03-02T06:31:11;6.13;;;3.28;;
31660;SDS011;18267;52.234;7.444;2024-03-02T06:33:36;5.40;;;3.28;;
31660;SDS011;18267;52.234;7.444;2024-03-02T06:36:03;4.82;;;3.28;;
31660;SDS011;18267;52.234;7.444;2024-03-02T06:38:28;6.38;;;3.38;;
31660;SDS011;18267;52.234;7.444;2024-03-02T06:40:54;9.55;;;4.15;;
31660;SDS011;18267;52.234;7.444;2024-03-02T06:43:23;8.95;;;3.85;;
31660;SDS011;18267;52.234;7.444;2024-03-02T06:45:49;9.35;;;3.72;;
31660;SDS011;18267;52.234;7.444;2024-03-02T06:48:15;8.63;;;4.00;;
31660;SDS011;18267;52.234;7.444;2024-03-02T06:50:45;3.90;;;3.05;;
31660;SDS011;18267;52.234;7.444;2024-03-02T06:53:11;6.53;;;3.10;;
31660;SDS011;18267;52.234;7.444;2024-03-02T06:55:37;6.07;;;3.40;;
31660;SDS011;18267;52.234;7.444;2024-03-02T06:58:02;6.57;;;2.88;;
31660;SDS011;18267;52.234;7.444;2024-03-02T07:00:28;11.82;;;3.70;;
31660;SDS011;18267;52.234;7.444;2024-03-02T07:02:54;7.28;;;3.63;;
31660;SDS011;18267;52.234;7.444;2024-03-02T07:05:19;6.72;;;3.83;;
31660;SDS011;18267;52.234;7.444;2024-03-02T07:07:46;7.90;;;3.42;;
31660;SDS011;18267;52.234;7.444;2024-03-02T07:10:11;4.40;;;3.15;;
31660;SDS011;18267;52.234;7.444;2024-03-02T07:12:37;7.40;;;3.70;;
31660;SDS011;18267;52.234;7.444;2024-03-02T07:15:03;8.70;;;4.32;;
31660;SDS011;18267;52.234;7.444;2024-03-02T07:17:29;7.47;;;4.03;;
31660;SDS011;18267;52.234;7.444;2024-03-02T07:19:55;9.82;;;4.63;;
31660;SDS011;18267;52.234;7.444;2024-03-02T07:22:21;5.57;;;3.00;;
31660;SDS011;18267;52.234;7.444;2024-03-02T07:24:47;7.72;;;4.00;;
31660;SDS011;18267;52.234;7.444;2024-03-02T07:27:14;6.15;;;3.40;;
31660;SDS011;18267;52.234;7.444;2024-03-02T07:29:41;7.55;;;3.63;;
31660;SDS011;18267;52.234;7.444;2024-03-02T07:32:07;6.65;;;3.53;;
31660;SDS011;18267;52.234;7.444;2024-03-02T07:34:33;5.78;;;4.22;;
31660;SDS011;18267;52.234;7.444;2024-03-02T07:36:59;7.57;;;3.60;;
31660;SDS011;18267;52.234;7.444;2024-03-02T07:39:25;5.28;;;3.38;;
31660;SDS011;18267;52.234;7.444;2024-03-02T07:41:51;4.68;;;3.10;;
31660;SDS011;18267;52.234;7.444;2024-03-02T07:44:17;5.70;;;3.47;;
31660;SDS011;18267;52.234;7.444;2024-03-02T07:46:44;7.57;;;3.55;;
31660;SDS011;18267;52.234;7.444;2024-03-02T07:49:16;5.78;;;3.83;;
31660;SDS011;18267;52.234;7.444;2024-03-02T07:51:45;9.38;;;3.85;;
31660;SDS011;18267;52.234;7.444;2024-03-02T07:54:11;7.68;;;4.03;;
31660;SDS011;18267;52.234;7.444;2024-03-02T07:56:37;5.18;;;3.50;;
31660;SDS011;18267;52.234;7.444;2024-03-02T07:59:03;5.80;;;3.63;;
31660;SDS011;18267;52.234;7.444;2024-03-02T08:01:29;6.88;;;4.10;;
31660;SDS011;18267;52.234;7.444;2024-03-02T08:03:59;7.47;;;4.43;;
31660;SDS011;18267;52.234;7.444;2024-03-02T08:06:28;7.97;;;4.10;;
31660;SDS011;18267;52.234;7.444;2024-03-02T08:08:54;6.40;;;3.75;;
31660;SDS011;18267;52.234;7.444;2024-03-02T08:11:21;3.72;;;3.17;;
31660;SDS011;18267;52.234;7.444;2024-03-02T08:13:47;6.30;;;4.20;;
31660;SDS011;18267;52.234;7.444;2024-03-02T08:16:13;4.95;;;3.53;;
31660;SDS011;18267;52.234;7.444;2024-03-02T08:18:44;6.45;;;3.38;;
31660;SDS011;18267;52.234;7.444;2024-03-02T08:21:11;6.88;;;3.60;;
31660;SDS011;18267;52.234;7.444;2024-03-02T08:23:37;6.20;;;3.60;;
31660;SDS011;18267;52.234;7.444;2024-03-02T08:26:03;7.93;;;4.38;;
31660;SDS011;18267;52.234;7.444;2024-03-02T08:28:29;9.00;;;3.63;;
31660;SDS011;18267;52.234;7.444;2024-03-02T08:30:54;7.25;;;3.50;;
31660;SDS011;18267;52.234;7.444;2024-03-02T08:33:21;8.05;;;3.70;;
31660;SDS011;18267;52.234;7.444;2024-03-02T08:35:46;8.10;;;3.28;;
31660;SDS011;18267;52.234;7.444;2024-03-02T08:38:12;7.15;;;3.80;;
31660;SDS011;18267;52.234;7.444;2024-03-02T08:40:37;5.63;;;3.10;;
31660;SDS011;18267;52.234;7.444;2024-03-02T08:43:03;6.30;;;3.53;;
31660;SDS011;18267;52.234;7.444;2024-03-02T08:45:28;4.68;;;2.90;;
31660;SDS011;18267;52.234;7.444;2024-03-02T08:47:54;3.47;;;2.55;;
31660;SDS011;18267;52.234;7.444;2024-03-02T08:50:20;4.53;;;3.17;;
31660;SDS011;18267;52.234;7.444;2024-03-02T08:52:45;3.85;;;3.08;;
31660;SDS011;18267;52.234;7.444;2024-03-02T08:55:11;6.75;;;2.88;;
31660;SDS011;18267;52.234;7.444;2024-03-02T08:57:36;4.60;;;2.90;;
31660;SDS011;18267;52.234;7.444;2024-03-02T09:00:02;5.30;;;2.47;;
31660;SDS011;18267;52.234;7.444;2024-03-02T09:02:30;4.45;;;2.53;;
31660;SDS011;18267;52.234;7.444;2024-03-02T09:04:56;6.70;;;3.35;;
31660;SDS011;18267;52.234;7.444;2024-03-02T09:07:22;3.22;;;2.70;;
31660;SDS011;18267;52.234;7.444;2024-03-02T09:09:48;4.95;;;2.92;;
31660;SDS011;18267;52.234;7.444;2024-03-02T09:12:14;8.05;;;2.83;;
31660;SDS011;18267;52.234;7.444;2024-03-02T09:14:40;4.18;;;2.83;;
31660;SDS011;18267;52.234;7.444;2024-03-02T09:17:06;4.88;;;2.97;;
31660;SDS011;18267;52.234;7.444;2024-03-02T09:19:31;4.20;;;2.67;;
31660;SDS011;18267;52.234;7.444;2024-03-02T09:21:57;4.90;;;2.60;;
31660;SDS011;18267;52.234;7.444;2024-03-02T09:24:23;7.25;;;2.78;;
31660;SDS011;18267;52.234;7.444;2024-03-02T09:26:49;5.43;;;2.97;;
31660;SDS011;18267;52.234;7.444;2024-03-02T09:29:15;3.42;;;2.25;;
31660;SDS011;18267;52.234;7.444;2024-03-02T09:31:41;5.63;;;3.17;;
31660;SDS011;18267;52.234;7.444;2024-03-02T09:34:07;3.38;;;2.35;;
31660;SDS011;18267;52.234;7.444;2024-03-02T09:36:32;3.60;;;2.38;;
31660;SDS011;18267;52.234;7.444;2024-03-02T09:38:58;3.60;;;2.25;;
31660;SDS011;18267;52.234;7.444;2024-03-02T09:41:24;3.92;;;2.40;;
31660;SDS011;18267;52.234;7.444;2024-03-02T09:43:50;2.72;;;2.10;;
31660;SDS011;18267;52.234;7.444;2024-03-02T09:46:16;8.25;;;2.58;;
31660;SDS011;18267;52.234;7.444;2024-03-02T09:48:43;5.30;;;2.00;;
31660;SDS011;18267;52.234;7.444;2024-03-02T09:51:09;7.80;;;2.33;;
31660;SDS011;18267;52.234;7.444;2024-03-02T09:53:36;3.75;;;2.10;;
31660;SDS011;18267;52.234;7.444;2024-03-02T09:56:02;6.90;;;2.13;;
31660;SDS011;18267;52.234;7.444;2024-03-02T09:58:28;2.40;;;1.30;;
31660;SDS011;18267;52.234;7.444;2024-03-02T10:00:53;2.65;;;1.45;;
31660;SDS011;18267;52.234;7.444;2024-03-02T10:03:19;5.03;;;1.52;;
31660;SDS011;18267;52.234;7.444;2024-03-02T10:05:46;3.10;;;1.35;;
31660;SDS011;18267;52.234;7.444;2024-03-02T10:08:11;6.15;;;1.40;;
31660;SDS011;18267;52.234;7.444;2024-03-02T10:10:40;4.55;;;1.23;;
31660;SDS011;18267;52.234;7.444;2024-03-02T10:13:08;2.92;;;1.50;;
31660;SDS011;18267;52.234;7.444;2024-03-02T10:15:35;2.08;;;1.48;;
31660;SDS011;18267;52.234;7.444;2024-03-02T10:18:08;1.60;;;1.42;;
31660;SDS011;18267;52.234;7.444;2024-03-02T10:20:38;5.40;;;1.23;;
31660;SDS011;18267;52.234;7.444;2024-03-02T10:23:10;3.60;;;1.25;;
31660;SDS011;18267;52.234;7.444;2024-03-02T10:25:37;3.00;;;1.20;;
31660;SDS011;18267;52.234;7.444;2024-03-02T10:28:03;3.15;;;1.20;;
31660;SDS011;18267;52.234;7.444;2024-03-02T10:30:30;4.75;;;1.58;;
31660;SDS011;18267;52.234;7.444;2024-03-02T10:32:56;1.52;;;1.25;;
31660;SDS011;18267;52.234;7.444;2024-03-02T10:35:22;5.35;;;1.42;;
31660;SDS011;18267;52.234;7.444;2024-03-02T10:37:49;7.32;;;1.30;;
31660;SDS011;18267;52.234;7.444;2024-03-02T10:40:15;4.28;;;1.20;;
31660;SDS011;18267;52.234;7.444;2024-03-02T10:42:41;1.90;;;1.27;;
31660;SDS011;18267;52.234;7.444;2024-03-02T10:45:10;2.47;;;1.40;;
31660;SDS011;18267;52.234;7.444;2024-03-02T10:47:39;3.03;;;1.48;;
31660;SDS011;18267;52.234;7.444;2024-03-02T10:50:07;4.43;;;1.83;;
31660;SDS011;18267;52.234;7.444;2024-03-02T10:52:42;3.65;;;1.25;;
31660;SDS011;18267;52.234;7.444;2024-03-02T10:55:08;4.85;;;1.58;;
31660;SDS011;18267;52.234;7.444;2024-03-02T10:57:53;2.90;;;1.50;;
31660;SDS011;18267;52.234;7.444;2024-03-02T11:00:21;4.20;;;1.42;;
31660;SDS011;18267;52.234;7.444;2024-03-02T11:02:58;1.83;;;1.30;;
31660;SDS011;18267;52.234;7.444;2024-03-02T11:05:34;4.05;;;2.00;;
31660;SDS011;18267;52.234;7.444;2024-03-02T11:08:02;4.07;;;1.48;;
31660;SDS011;18267;52.234;7.444;2024-03-02T11:10:36;3.67;;;1.75;;
31660;SDS011;18267;52.234;7.444;2024-03-02T11:13:08;4.30;;;1.80;;
31660;SDS011;18267;52.234;7.444;2024-03-02T11:15:35;2.42;;;1.73;;
31660;SDS011;18267;52.234;7.444;2024-03-02T11:18:03;3.17;;;1.52;;
31660;SDS011;18267;52.234;7.444;2024-03-02T11:20:33;3.42;;;1.70;;
31660;SDS011;18267;52.234;7.444;2024-03-02T11:23:04;4.85;;;1.88;;
31660;SDS011;18267;52.234;7.444;2024-03-02T11:25:33;4.32;;;1.45;;
31660;SDS011;18267;52.234;7.444;2024-03-02T11:28:00;5.72;;;2.17;;
31660;SDS011;18267;52.234;7.444;2024-03-02T11:35:25;6.07;;;1.65;;
31660;SDS011;18267;52.234;7.444;2024-03-02T11:37:54;6.03;;;1.77;;
31660;SDS011;18267;52.234;7.444;2024-03-02T11:40:24;3.67;;;1.70;;
31660;SDS011;18267;52.234;7.444;2024-03-02T11:42:50;4.35;;;1.30;;
31660;SDS011;18267;52.234;7.444;2024-03-02T11:45:16;2.90;;;1.50;;
31660;SDS011;18267;52.234;7.444;2024-03-02T11:47:46;3.72;;;1.20;;
31660;SDS011;18267;52.234;7.444;2024-03-02T11:50:15;2.33;;;1.50;;
31660;SDS011;18267;52.234;7.444;2024-03-02T11:52:40;7.85;;;1.65;;
31660;SDS011;18267;52.234;7.444;2024-03-02T11:55:08;2.92;;;1.50;;
31660;SDS011;18267;52.234;7.444;2024-03-02T11:57:36;1.70;;;0.90;;
31660;SDS011;18267;52.234;7.444;2024-03-02T12:00:03;1.42;;;1.20;;
31660;SDS011;18267;52.234;7.444;2024-03-02T12:02:29;2.35;;;1.52;;
31660;SDS011;18267;52.234;7.444;2024-03-02T12:04:54;4.10;;;1.50;;
31660;SDS011;18267;52.234;7.444;2024-03-02T12:07:22;3.65;;;1.40;;
31660;SDS011;18267;52.234;7.444;2024-03-02T12:10:09;1.80;;;1.27;;
31660;SDS011;18267;52.234;7.444;2024-03-02T12:12:34;3.38;;;1.13;;
31660;SDS011;18267;52.234;7.444;2024-03-02T12:15:00;2.28;;;1.20;;
31660;SDS011;18267;52.234;7.444;2024-03-02T12:17:26;2.78;;;1.65;;
31660;SDS011;18267;52.234;7.444;2024-03-02T12:19:51;2.50;;;1.42;;
31660;SDS011;18267;52.234;7.444;2024-03-02T12:22:17;2.75;;;1.42;;
31660;SDS011;18267;52.234;7.444;2024-03-02T12:24:43;1.90;;;1.60;;
31660;SDS011;18267;52.234;7.444;2024-03-02T12:27:13;2.08;;;1.45;;
31660;SDS011;18267;52.234;7.444;2024-03-02T12:29:40;2.53;;;1.45;;
31660;SDS011;18267;52.234;7.444;2024-03-02T12:32:06;4.70;;;1.38;;
31660;SDS011;18267;52.234;7.444;2024-03-02T12:34:32;1.77;;;1.35;;
31660;SDS011;18267;52.234;7.444;2024-03-02T12:36:57;2.38;;;1.50;;
31660;SDS011;18267;52.234;7.444;2024-03-02T12:39:23;1.88;;;1.45;;
31660;SDS011;18267;52.234;7.444;2024-03-02T12:41:49;2.97;;;1.10;;
31660;SDS011;18267;52.234;7.444;2024-03-02T12:44:16;2.08;;;1.00;;
31660;SDS011;18267;52.234;7.444;2024-03-02T12:46:42;2.15;;;0.88;;
31660;SDS011;18267;52.234;7.444;2024-03-02T12:49:09;1.55;;;0.80;;
31660;SDS011;18267;52.234;7.444;2024-03-02T12:51:36;1.42;;;0.93;;
31660;SDS011;18267;52.234;7.444;2024-03-02T12:54:02;4.05;;;1.20;;
31660;SDS011;18267;52.234;7.444;2024-03-02T12:56:30;1.67;;;0.85;;
31660;SDS011;18267;52.234;7.444;2024-03-02T12:58:56;1.58;;;0.60;;
31660;SDS011;18267;52.234;7.444;2024-03-02T13:01:22;4.32;;;0.80;;
31660;SDS011;18267;52.234;7.444;2024-03-02T13:03:52;0.75;;;0.60;;
31660;SDS011;18267;52.234;7.444;2024-03-02T13:06:20;0.82;;;0.63;;
31660;SDS011;18267;52.234;7.444;2024-03-02T13:08:46;1.58;;;0.90;;
31660;SDS011;18267;52.234;7.444;2024-03-02T13:11:12;1.45;;;0.68;;
31660;SDS011;18267;52.234;7.444;2024-03-02T13:13:38;1.40;;;0.70;;
31660;SDS011;18267;52.234;7.444;2024-03-02T13:16:11;2.25;;;0.90;;
31660;SDS011;18267;52.234;7.444;2024-03-02T13:18:38;1.65;;;0.85;;
31660;SDS011;18267;52.234;7.444;2024-03-02T13:21:05;2.92;;;0.85;;
31660;SDS011;18267;52.234;7.444;2024-03-02T13:23:32;1.38;;;0.60;;
31660;SDS011;18267;52.234;7.444;2024-03-02T13:25:58;2.35;;;1.02;;
31660;SDS011;18267;52.234;7.444;2024-03-02T13:28:26;0.93;;;0.82;;
31660;SDS011;18267;52.234;7.444;2024-03-02T13:30:53;1.83;;;0.80;;
31660;SDS011;18267;52.234;7.444;2024-03-02T13:33:18;2.75;;;1.00;;
31660;SDS011;18267;52.234;7.444;2024-03-02T13:35:50;0.82;;;0.70;;
31660;SDS011;18267;52.234;7.444;2024-03-02T13:38:18;1.27;;;1.00;;
31660;SDS011;18267;52.234;7.444;2024-03-02T13:40:45;0.98;;;0.70;;
31660;SDS011;18267;52.234;7.444;2024-03-02T13:43:16;2.22;;;0.70;;
31660;SDS011;18267;52.234;7.444;2024-03-02T13:45:42;1.58;;;0.60;;
31660;SDS011;18267;52.234;7.444;2024-03-02T13:48:07;0.68;;;0.50;;
31660;SDS011;18267;52.234;7.444;2024-03-02T13:50:33;1.63;;;0.80;;
31660;SDS011;18267;52.234;7.444;2024-03-02T13:52:58;1.38;;;0.50;;
31660;SDS011;18267;52.234;7.444;2024-03-02T13:55:24;1.17;;;0.90;;
31660;SDS011;18267;52.234;7.444;2024-03-02T13:57:49;1.15;;;0.80;;
31660;SDS011;18267;52.234;7.444;2024-03-02T14:00:18;4.50;;;0.80;;
31660;SDS011;18267;52.234;7.444;2024-03-02T14:02:47;1.88;;;1.02;;
31660;SDS011;18267;52.234;7.444;2024-03-02T14:05:16;2.65;;;1.05;;
31660;SDS011;18267;52.234;7.444;2024-03-02T14:07:42;1.38;;;0.90;;
31660;SDS011;18267;52.234;7.444;2024-03-02T14:10:09;1.00;;;0.68;;
31660;SDS011;18267;52.234;7.444;2024-03-02T14:12:35;1.10;;;0.70;;
31660;SDS011;18267;52.234;7.444;2024-03-02T14:15:01;2.78;;;0.80;;
31660;SDS011;18267;52.234;7.444;2024-03-02T14:17:29;1.90;;;1.00;;
31660;SDS011;18267;52.234;7.444;2024-03-02T14:19:57;2.50;;;0.60;;
31660;SDS011;18267;52.234;7.444;2024-03-02T14:22:24;1.05;;;0.60;;
31660;SDS011;18267;52.234;7.444;2024-03-02T14:24:49;1.55;;;1.00;;
31660;SDS011;18267;52.234;7.444;2024-03-02T14:27:15;0.80;;;0.60;;
31660;SDS011;18267;52.234;7.444;2024-03-02T14:29:42;1.15;;;0.77;;
31660;SDS011;18267;52.234;7.444;2024-03-02T14:32:08;0.80;;;0.70;;
31660;SDS011;18267;52.234;7.444;2024-03-02T14:34:33;1.02;;;0.60;;
31660;SDS011;18267;52.234;7.444;2024-03-02T14:36:59;1.17;;;0.90;;
31660;SDS011;18267;52.234;7.444;2024-03-02T14:39:26;8.05;;;0.70;;
31660;SDS011;18267;52.234;7.444;2024-03-02T14:41:52;1.55;;;0.80;;
31660;SDS011;18267;52.234;7.444;2024-03-02T14:44:17;1.88;;;0.60;;
31660;SDS011;18267;52.234;7.444;2024-03-02T14:46:43;0.70;;;0.50;;
31660;SDS011;18267;52.234;7.444;2024-03-02T14:49:13;1.13;;;0.50;;
31660;SDS011;18267;52.234;7.444;2024-03-02T14:51:38;0.60;;;0.60;;
31660;SDS011;18267;52.234;7.444;2024-03-02T14:54:04;1.10;;;0.63;;